Time;durP1;ratioP1;P1;durP2;ratioP2;P2;SDS_P1;SDS_P2;PMS_P1;PMS_P2;Temp;Humidity;BMP_temperature;BMP_pressure;BME280_temperature;BME280_humidity;BME280_pressure;Samples;Min_cycle;Max_cycle;Signal;HPM_P1;HPM_P2
2022/12/10 00:01:54;;;;;;;46.67;26.67;;;2.80;99.90;;;;;;5065107;28;20204;-30
2022/12/10 00:04:24;;;;;;;43.77;25.23;;;2.80;99.90;;;;;;5065051;28;20219;-31
2022/12/10 00:06:53;;;;;;;48.13;26.33;;;2.80;99.90;;;;;;5054612;28;20216;-31
2022/12/10 00:09:26;;;;;;;46.37;26.13;;;2.80;99.90;;;;;;5058418;28;20678;-31
2022/12/10 00:11:55;;;;;;;46.53;27.13;;;2.70;99.90;;;;;;5065461;28;20512;-31
2022/12/10 00:14:25;;;;;;;47.73;27.50;;;2.70;99.90;;;;;;5067096;28;20296;-31
2022/12/10 00:16:52;;;;;;;49.27;27.20;;;2.70;99.90;;;;;;5066150;28;20203;-31
2022/12/10 00:19:19;;;;;;;51.33;27.13;;;2.70;99.90;;;;;;5066395;28;20740;-31
2022/12/10 00:21:49;;;;;;;47.73;26.13;;;2.60;99.90;;;;;;5066184;28;20207;-31
2022/12/10 00:24:18;;;;;;;51.03;28.10;;;2.60;99.90;;;;;;5065516;28;20716;-31
2022/12/10 00:26:47;;;;;;;48.97;26.70;;;2.60;99.90;;;;;;5065541;28;20219;-31
2022/12/10 00:29:17;;;;;;;48.97;27.50;;;2.60;99.90;;;;;;5064472;28;20292;-31
2022/12/10 00:31:46;;;;;;;47.23;26.87;;;2.60;99.90;;;;;;5064256;28;20223;-31
2022/12/10 00:34:13;;;;;;;46.80;27.57;;;2.60;99.90;;;;;;5065979;28;20276;-31
2022/12/10 00:36:48;;;;;;;52.13;26.00;;;2.70;99.90;;;;;;5065945;28;20202;-31
2022/12/10 00:39:18;;;;;;;50.23;27.27;;;2.70;99.90;;;;;;5065182;28;20581;-31
2022/12/10 00:41:48;;;;;;;49.80;28.27;;;2.70;99.90;;;;;;5058924;28;20210;-31
2022/12/10 00:44:18;;;;;;;50.30;28.13;;;2.60;99.90;;;;;;5050898;28;20247;-31
2022/12/10 00:46:47;;;;;;;51.63;27.83;;;2.60;99.90;;;;;;5044916;28;20701;-31
2022/12/10 00:49:17;;;;;;;51.53;26.87;;;2.60;99.90;;;;;;5049069;28;20204;-31
2022/12/10 00:51:49;;;;;;;48.90;28.53;;;2.60;99.90;;;;;;5048998;28;20240;-31
2022/12/10 00:54:18;;;;;;;49.47;27.10;;;2.60;99.90;;;;;;5044793;28;20202;-31
2022/12/10 00:56:48;;;;;;;47.83;25.40;;;2.60;99.90;;;;;;5051101;28;20303;-31
2022/12/10 00:59:17;;;;;;;47.80;25.80;;;2.60;99.90;;;;;;5055708;28;20204;-31
2022/12/10 01:01:47;;;;;;;46.73;26.23;;;2.60;99.90;;;;;;5047302;28;20200;-31
2022/12/10 01:04:17;;;;;;;48.53;26.70;;;2.60;99.90;;;;;;5062986;28;20207;-31
2022/12/10 01:06:52;;;;;;;42.87;24.90;;;2.60;99.90;;;;;;5055093;28;20560;-32
2022/12/10 01:09:28;;;;;;;43.50;25.13;;;2.60;99.90;;;;;;5060807;28;20227;-31
2022/12/10 01:11:57;;;;;;;44.63;24.53;;;2.60;99.90;;;;;;5054666;28;20761;-32
2022/12/10 01:14:30;;;;;;;41.23;24.37;;;2.60;99.90;;;;;;5048757;28;20215;-31
2022/12/10 01:17:03;;;;;;;48.03;25.20;;;2.60;99.90;;;;;;5056503;28;20551;-31
2022/12/10 01:19:32;;;;;;;52.20;27.87;;;2.60;99.90;;;;;;5065650;28;20688;-31
2022/12/10 01:22:02;;;;;;;48.07;25.67;;;2.60;99.90;;;;;;5045546;28;20204;-31
2022/12/10 01:24:32;;;;;;;48.47;25.93;;;2.50;99.90;;;;;;5043182;28;20311;-31
2022/12/10 01:26:59;;;;;;;47.80;26.47;;;2.50;99.90;;;;;;5054146;28;20620;-31
2022/12/10 01:29:27;;;;;;;48.83;26.57;;;2.50;99.90;;;;;;5060590;28;20295;-31
2022/12/10 01:31:56;;;;;;;46.63;25.80;;;2.50;99.90;;;;;;5051282;28;20254;-31
2022/12/10 01:34:26;;;;;;;47.10;26.27;;;2.50;99.90;;;;;;5063025;28;20210;-31
2022/12/10 01:36:56;;;;;;;46.33;25.97;;;2.40;99.90;;;;;;5052653;28;20230;-31
2022/12/10 01:39:24;;;;;;;39.90;22.23;;;2.40;99.90;;;;;;5044216;28;20212;-31
2022/12/10 01:41:55;;;;;;;45.80;23.50;;;2.40;99.90;;;;;;5050309;28;20212;-31
2022/12/10 01:44:25;;;;;;;40.77;21.83;;;2.40;99.90;;;;;;5027079;28;20200;-31
2022/12/10 01:46:56;;;;;;;42.90;24.07;;;2.40;99.90;;;;;;5051484;28;20206;-31
2022/12/10 01:49:33;;;;;;;41.20;23.37;;;2.40;99.90;;;;;;5063214;28;20298;-31
2022/12/10 01:52:01;;;;;;;40.33;22.00;;;2.40;99.90;;;;;;5064591;28;20237;-31
2022/12/10 01:54:38;;;;;;;42.40;23.90;;;2.30;99.90;;;;;;5063527;28;20299;-31
2022/12/10 01:57:07;;;;;;;42.97;22.13;;;2.30;99.90;;;;;;5064870;28;20301;-31
2022/12/10 01:59:38;;;;;;;39.33;21.30;;;2.30;99.90;;;;;;5047507;28;20677;-31
2022/12/10 02:02:23;;;;;;;39.50;21.73;;;2.30;99.90;;;;;;5048669;28;20677;-31
2022/12/10 02:05:19;;;;;;;42.93;23.47;;;2.30;99.90;;;;;;5056402;28;20238;-31
2022/12/10 02:08:07;;;;;;;45.30;25.33;;;2.20;99.90;;;;;;5047805;28;20649;-31
2022/12/10 02:10:46;;;;;;;43.30;25.03;;;2.20;99.90;;;;;;5063626;28;20211;-31
2022/12/10 02:13:21;;;;;;;42.73;24.03;;;2.20;99.90;;;;;;5064413;28;20698;-31
2022/12/10 02:16:32;;;;;;;42.90;23.03;;;2.20;99.90;;;;;;5054179;28;20299;-31
2022/12/10 02:19:18;;;;;;;42.17;23.00;;;2.20;99.90;;;;;;5030630;28;20345;-31
2022/12/10 02:21:51;;;;;;;45.53;23.27;;;2.20;99.90;;;;;;5062179;28;20213;-31
2022/12/10 02:24:29;;;;;;;40.77;21.40;;;2.10;99.90;;;;;;5055872;28;20212;-31
2022/12/10 02:27:02;;;;;;;44.33;23.20;;;2.10;99.90;;;;;;5051733;28;20221;-31
2022/12/10 02:29:33;;;;;;;39.67;23.07;;;2.10;99.90;;;;;;5044995;28;20200;-31
2022/12/10 02:32:11;;;;;;;47.87;24.73;;;2.10;99.90;;;;;;5057985;28;20216;-31
2022/12/10 02:35:00;;;;;;;41.83;22.37;;;2.10;99.90;;;;;;5045878;28;20250;-31
2022/12/10 02:37:39;;;;;;;41.73;22.20;;;2.10;99.90;;;;;;5054368;28;20204;-31
2022/12/10 02:40:11;;;;;;;45.07;22.70;;;2.10;99.90;;;;;;5062521;28;20217;-31
2022/12/10 02:42:47;;;;;;;45.10;23.37;;;2.10;99.90;;;;;;5048039;28;20317;-31
2022/12/10 02:45:14;;;;;;;48.30;23.53;;;2.10;99.90;;;;;;5053235;28;20203;-31
2022/12/10 02:47:44;;;;;;;48.80;24.50;;;2.10;99.90;;;;;;5064553;28;20207;-31
2022/12/10 02:50:15;;;;;;;42.90;24.23;;;2.10;99.90;;;;;;5051504;28;20811;-31
2022/12/10 02:52:47;;;;;;;41.63;22.13;;;2.10;99.90;;;;;;5044186;28;20216;-31
2022/12/10 02:55:14;;;;;;;40.57;22.23;;;2.10;99.90;;;;;;5044586;28;20198;-31
2022/12/10 02:57:56;;;;;;;44.00;22.87;;;2.10;99.90;;;;;;5045238;28;20200;-31
2022/12/10 03:00:27;;;;;;;41.23;21.33;;;2.10;99.90;;;;;;5063961;28;20667;-31
2022/12/10 03:03:02;;;;;;;36.23;19.17;;;2.10;99.90;;;;;;5047093;28;20212;-31
2022/12/10 03:05:54;;;;;;;38.63;20.23;;;2.20;99.90;;;;;;5046835;28;20634;-31
2022/12/10 03:08:32;;;;;;;44.80;22.60;;;2.20;99.90;;;;;;5065063;28;20203;-31
2022/12/10 03:11:21;;;;;;;47.90;23.23;;;2.20;99.90;;;;;;5067681;28;20215;-31
2022/12/10 03:13:57;;;;;;;48.70;24.13;;;2.20;99.90;;;;;;5056179;28;20204;-31
2022/12/10 03:16:28;;;;;;;50.47;26.03;;;2.20;99.90;;;;;;5067049;28;20203;-31
2022/12/10 03:19:02;;;;;;;48.77;24.93;;;2.20;99.90;;;;;;5053139;28;20627;-30
2022/12/10 03:21:34;;;;;;;50.43;22.97;;;2.10;99.90;;;;;;5047912;28;20196;-30
2022/12/10 03:24:03;;;;;;;49.20;23.60;;;2.10;99.90;;;;;;5054581;28;20218;-30
2022/12/10 03:26:33;;;;;;;48.97;24.97;;;2.10;99.90;;;;;;5066302;28;20224;-30
2022/12/10 03:29:07;;;;;;;50.00;24.93;;;2.10;99.90;;;;;;5054530;28;20242;-30
2022/12/10 03:31:39;;;;;;;56.60;25.77;;;2.00;99.90;;;;;;5058773;28;20219;-30
2022/12/10 03:34:08;;;;;;;53.50;27.07;;;2.10;99.90;;;;;;5065084;28;20242;-30
2022/12/10 03:36:37;;;;;;;51.83;26.47;;;2.10;99.90;;;;;;5065931;28;20282;-30
2022/12/10 03:39:07;;;;;;;52.57;25.83;;;2.00;99.90;;;;;;5064640;28;20582;-30
2022/12/10 03:41:35;;;;;;;54.73;27.00;;;2.00;99.90;;;;;;5054710;28;20200;-30
2022/12/10 03:44:04;;;;;;;57.77;27.47;;;2.00;99.90;;;;;;5058631;28;20230;-30
2022/12/10 03:46:34;;;;;;;55.00;26.80;;;2.10;99.90;;;;;;5052408;28;20758;-31
2022/12/10 03:49:03;;;;;;;51.00;27.60;;;2.10;99.90;;;;;;5062279;28;20200;-30
2022/12/10 03:51:32;;;;;;;53.70;26.03;;;2.10;99.90;;;;;;5048816;28;20224;-30
2022/12/10 03:53:59;;;;;;;55.73;26.30;;;2.10;99.90;;;;;;5061377;28;20659;-30
2022/12/10 03:56:29;;;;;;;51.27;27.23;;;2.10;99.90;;;;;;5059888;28;20208;-30
2022/12/10 03:59:00;;;;;;;52.63;25.83;;;2.10;99.90;;;;;;5063468;28;20200;-31
2022/12/10 04:01:27;;;;;;;50.80;24.27;;;2.10;99.90;;;;;;5065414;28;20216;-30
2022/12/10 04:03:57;;;;;;;52.20;26.07;;;2.10;99.90;;;;;;5066488;28;20686;-30
2022/12/10 04:06:26;;;;;;;52.03;26.73;;;2.10;99.90;;;;;;5063813;28;20887;-30
2022/12/10 04:08:53;;;;;;;52.33;26.47;;;2.10;99.90;;;;;;5045603;28;20686;-30
2022/12/10 04:11:27;;;;;;;49.63;26.17;;;2.10;99.90;;;;;;5046676;28;20235;-30
2022/12/10 04:16:42;;;;;;;55.23;27.93;;;2.10;99.90;;;;;;5066635;28;20188;-30
2022/12/10 04:19:16;;;;;;;49.93;26.67;;;2.10;99.90;;;;;;5066506;28;20295;-30
2022/12/10 04:27:25;;;;;;;54.57;26.77;;;2.10;99.90;;;;;;5046797;28;20219;-30
2022/12/10 04:29:53;;;;;;;54.13;26.50;;;2.10;99.90;;;;;;5045566;28;20294;-30
2022/12/10 04:32:25;;;;;;;50.87;25.50;;;2.10;99.90;;;;;;5049909;28;20228;-29
2022/12/10 04:34:52;;;;;;;54.07;26.83;;;2.10;99.90;;;;;;5064870;28;20192;-30
2022/12/10 04:37:22;;;;;;;50.00;26.03;;;2.10;99.90;;;;;;5061648;28;20575;-30
2022/12/10 04:39:50;;;;;;;51.33;26.83;;;2.00;99.90;;;;;;5045874;28;20222;-30
2022/12/10 04:42:18;;;;;;;54.13;25.47;;;2.00;99.90;;;;;;5064729;28;20199;-30
2022/12/10 04:44:45;;;;;;;57.47;27.27;;;2.00;99.90;;;;;;5062058;28;20234;-30
2022/12/10 04:47:17;;;;;;;56.67;27.50;;;2.10;99.90;;;;;;5046169;28;20532;-30
2022/12/10 04:49:47;;;;;;;54.60;28.83;;;2.10;99.90;;;;;;5062548;28;20239;-30
2022/12/10 04:52:15;;;;;;;56.90;29.30;;;2.10;99.90;;;;;;5063688;28;20255;-30
2022/12/10 04:54:45;;;;;;;61.00;28.80;;;2.10;99.90;;;;;;5065273;28;20302;-30
2022/12/10 04:57:15;;;;;;;60.33;28.37;;;2.20;99.90;;;;;;5060368;28;20231;-30
2022/12/10 04:59:43;;;;;;;63.37;29.77;;;2.20;99.90;;;;;;5051734;28;20196;-30
2022/12/10 05:02:10;;;;;;;66.97;31.43;;;2.10;99.90;;;;;;5044088;28;20219;-30
2022/12/10 05:04:37;;;;;;;57.70;26.87;;;2.20;99.90;;;;;;5057341;28;20291;-30
2022/12/10 05:07:07;;;;;;;55.10;27.97;;;2.10;99.90;;;;;;5052053;28;20310;-30
2022/12/10 05:09:34;;;;;;;49.57;27.13;;;2.20;99.90;;;;;;5045472;28;20199;-30
2022/12/10 05:12:05;;;;;;;57.07;28.67;;;2.20;99.90;;;;;;5045643;28;20328;-30
2022/12/10 05:14:32;;;;;;;59.37;30.50;;;2.30;99.90;;;;;;5052988;28;20711;-30
2022/12/10 05:16:59;;;;;;;57.50;29.40;;;2.30;99.90;;;;;;5047912;28;20690;-30
2022/12/10 05:19:28;;;;;;;59.07;28.30;;;2.20;99.90;;;;;;5052463;28;20251;-30
2022/12/10 05:24:41;;;;;;;48.43;26.27;;;2.20;99.90;;;;;;5064622;28;20187;-30
2022/12/10 05:27:10;;;;;;;60.87;27.47;;;2.30;99.90;;;;;;5065306;28;20500;-30
2022/12/10 05:29:38;;;;;;;57.33;27.63;;;2.30;99.90;;;;;;5065625;28;20203;-30
2022/12/10 05:32:07;;;;;;;64.83;28.97;;;2.30;99.90;;;;;;5065338;28;20205;-30
2022/12/10 05:34:36;;;;;;;61.13;28.83;;;2.30;99.90;;;;;;5064010;28;20200;-30
2022/12/10 05:37:03;;;;;;;59.00;28.10;;;2.40;99.90;;;;;;5065786;28;20678;-30
2022/12/10 05:39:33;;;;;;;57.73;29.30;;;2.40;99.90;;;;;;5064067;28;20642;-30
2022/12/10 05:42:02;;;;;;;68.83;32.53;;;2.40;99.90;;;;;;5065940;28;20204;-30
2022/12/10 05:44:34;;;;;;;64.00;31.33;;;2.40;99.90;;;;;;5065457;28;20200;-30
2022/12/10 05:47:03;;;;;;;60.20;30.87;;;2.30;99.90;;;;;;5065294;28;20238;-30
2022/12/10 05:49:31;;;;;;;61.20;29.47;;;2.30;99.90;;;;;;5064682;28;20772;-30
2022/12/10 05:52:00;;;;;;;61.23;29.47;;;2.30;99.90;;;;;;5062879;28;20353;-30
2022/12/10 05:54:28;;;;;;;61.40;31.43;;;2.30;99.90;;;;;;5043639;28;20197;-30
2022/12/10 05:56:55;;;;;;;52.07;27.77;;;2.20;99.90;;;;;;5058010;28;20235;-30
2022/12/10 05:59:27;;;;;;;56.67;29.97;;;2.20;99.90;;;;;;5064715;28;20271;-30
2022/12/10 06:01:54;;;;;;;58.30;31.10;;;2.20;99.90;;;;;;5049821;28;20302;-30
2022/12/10 06:04:23;;;;;;;59.17;31.30;;;2.10;99.90;;;;;;5056580;28;20250;-30
2022/12/10 06:06:51;;;;;;;64.83;31.80;;;2.20;99.90;;;;;;5056557;28;20566;-30
2022/12/10 06:09:23;;;;;;;65.03;31.10;;;2.10;99.90;;;;;;5051152;28;20560;-30
2022/12/10 06:11:52;;;;;;;62.33;31.57;;;2.10;99.90;;;;;;5053407;28;20196;-30
2022/12/10 06:14:22;;;;;;;60.70;30.60;;;2.10;99.90;;;;;;5056215;28;20236;-30
2022/12/10 06:16:54;;;;;;;62.67;31.60;;;2.10;99.90;;;;;;5047733;28;20298;-30
2022/12/10 06:19:21;;;;;;;62.50;30.40;;;2.00;99.90;;;;;;5062591;28;20664;-30
2022/12/10 06:21:50;;;;;;;59.37;30.47;;;2.00;99.90;;;;;;5050382;28;20214;-30
2022/12/10 06:24:20;;;;;;;60.47;31.80;;;2.00;99.90;;;;;;5054748;28;20592;-30
2022/12/10 06:26:49;;;;;;;62.20;31.13;;;2.00;99.90;;;;;;5063318;28;20207;-30
2022/12/10 06:29:24;;;;;;;61.87;30.07;;;2.00;99.90;;;;;;5064523;28;20674;-30
2022/12/10 06:31:53;;;;;;;57.53;29.17;;;2.00;99.90;;;;;;5062455;28;20207;-30
2022/12/10 06:34:22;;;;;;;66.07;30.43;;;2.00;99.90;;;;;;5058539;28;20278;-30
2022/12/10 06:36:54;;;;;;;64.90;30.67;;;2.00;99.90;;;;;;5059934;28;20681;-30
2022/12/10 06:39:21;;;;;;;63.50;28.73;;;2.00;99.90;;;;;;5061629;28;20222;-30
2022/12/10 06:41:48;;;;;;;51.57;28.10;;;2.00;99.90;;;;;;5065590;28;20203;-30
2022/12/10 06:44:16;;;;;;;59.27;28.30;;;1.90;99.90;;;;;;5068952;28;20211;-30
2022/12/10 06:46:44;;;;;;;60.30;30.07;;;1.90;99.90;;;;;;5064177;28;20200;-30
2022/12/10 06:49:13;;;;;;;61.93;30.70;;;1.90;99.90;;;;;;5068228;28;20313;-31
2022/12/10 06:51:42;;;;;;;62.13;31.30;;;1.90;99.90;;;;;;5064018;28;20200;-30
2022/12/10 06:54:12;;;;;;;64.00;31.17;;;1.90;99.90;;;;;;5067133;28;20228;-30
2022/12/10 06:56:39;;;;;;;65.47;30.27;;;1.90;99.90;;;;;;5067280;28;20247;-30
2022/12/10 06:59:08;;;;;;;69.90;32.57;;;1.90;99.90;;;;;;5066684;28;20207;-30
2022/12/10 07:01:39;;;;;;;68.27;33.20;;;1.90;99.90;;;;;;5056805;28;20246;-34
2022/12/10 07:04:10;;;;;;;68.30;33.23;;;1.90;99.90;;;;;;5029618;28;20765;-30
2022/12/10 07:06:42;;;;;;;68.30;32.97;;;1.90;99.90;;;;;;5047885;28;20290;-30
2022/12/10 07:09:12;;;;;;;65.20;32.60;;;1.90;99.90;;;;;;5059413;28;20270;-30
2022/12/10 07:11:39;;;;;;;67.50;31.50;;;1.90;99.90;;;;;;5058192;28;20206;-30
2022/12/10 07:14:15;;;;;;;73.43;32.97;;;1.90;99.90;;;;;;5061784;28;20281;-30
2022/12/10 07:16:44;;;;;;;72.17;33.27;;;1.90;99.90;;;;;;5067303;28;20187;-30
2022/12/10 07:19:14;;;;;;;75.83;35.10;;;1.90;99.90;;;;;;5062142;28;20212;-30
2022/12/10 07:21:45;;;;;;;72.50;33.60;;;1.90;99.90;;;;;;5060292;28;20652;-30
2022/12/10 07:24:18;;;;;;;73.40;34.50;;;1.90;99.90;;;;;;5061117;28;20223;-32
2022/12/10 07:26:48;;;;;;;71.10;33.53;;;1.90;99.90;;;;;;5059752;28;20258;-31
2022/12/10 07:29:18;;;;;;;78.50;36.30;;;2.00;99.90;;;;;;5052360;28;20627;-31
2022/12/10 07:31:47;;;;;;;71.97;33.17;;;2.00;99.90;;;;;;5058270;28;20204;-32
2022/12/10 07:34:17;;;;;;;81.00;35.13;;;2.00;99.90;;;;;;5064483;28;20344;-31
2022/12/10 07:36:44;;;;;;;74.37;32.27;;;1.90;99.90;;;;;;5063744;28;20196;-31
2022/12/10 07:39:17;;;;;;;78.80;34.63;;;2.00;99.90;;;;;;5063530;28;20215;-31
2022/12/10 07:41:52;;;;;;;80.67;35.17;;;1.90;99.90;;;;;;5055981;28;20224;-31
2022/12/10 07:44:23;;;;;;;79.73;36.50;;;1.90;99.90;;;;;;5063769;28;20250;-31
2022/12/10 07:46:54;;;;;;;78.03;36.23;;;1.90;99.90;;;;;;5065157;28;20668;-31
2022/12/10 07:49:21;;;;;;;82.13;36.17;;;1.90;99.90;;;;;;5062672;28;20246;-32
2022/12/10 07:51:53;;;;;;;81.53;35.07;;;2.00;99.90;;;;;;5065959;28;20666;-31
2022/12/10 07:54:20;;;;;;;83.80;34.93;;;1.90;99.90;;;;;;5066489;28;20261;-31
2022/12/10 07:56:50;;;;;;;84.77;37.20;;;1.90;99.90;;;;;;5063902;28;20246;-31
2022/12/10 07:59:19;;;;;;;86.93;36.80;;;2.00;99.90;;;;;;5058620;28;20591;-31
2022/12/10 08:01:49;;;;;;;81.57;35.27;;;2.00;99.90;;;;;;5057263;28;20207;-31
2022/12/10 08:04:19;;;;;;;74.90;31.23;;;2.00;99.90;;;;;;5049844;28;20682;-31
2022/12/10 08:06:47;;;;;;;67.50;27.77;;;2.00;99.90;;;;;;5059411;28;20256;-31
2022/12/10 08:09:21;;;;;;;59.60;28.20;;;2.00;99.90;;;;;;5055014;28;20744;-31
2022/12/10 08:11:52;;;;;;;60.87;27.80;;;2.00;99.90;;;;;;5056807;28;20216;-31
2022/12/10 08:14:21;;;;;;;67.77;30.43;;;2.00;99.90;;;;;;5065156;28;20332;-31
2022/12/10 08:16:48;;;;;;;68.60;30.97;;;2.00;99.90;;;;;;5062262;28;20669;-31
2022/12/10 08:19:18;;;;;;;66.10;27.93;;;2.00;99.90;;;;;;5047103;28;20227;-31
2022/12/10 08:21:52;;;;;;;68.83;26.80;;;2.00;99.90;;;;;;5047927;28;20261;-31
2022/12/10 08:24:20;;;;;;;69.60;29.93;;;2.00;99.90;;;;;;5050982;28;20753;-31
2022/12/10 08:26:47;;;;;;;68.10;28.00;;;2.00;99.90;;;;;;5062577;28;20441;-31
2022/12/10 08:29:14;;;;;;;60.67;26.10;;;2.10;99.90;;;;;;5064392;28;20200;-31
2022/12/10 08:31:41;;;;;;;67.73;28.90;;;2.10;99.90;;;;;;5054703;28;20208;-31
2022/12/10 08:34:14;;;;;;;64.77;28.07;;;2.10;99.90;;;;;;5062891;28;20228;-31
2022/12/10 08:36:45;;;;;;;63.40;26.63;;;2.20;99.90;;;;;;5056650;28;20563;-31
2022/12/10 08:39:17;;;;;;;68.47;28.13;;;2.20;99.90;;;;;;5045377;28;20211;-32
2022/12/10 08:41:46;;;;;;;63.13;26.97;;;2.20;99.90;;;;;;5063189;28;20753;-31
2022/12/10 08:44:14;;;;;;;65.20;27.67;;;2.10;99.90;;;;;;5065555;28;20569;-31
2022/12/10 08:46:45;;;;;;;61.57;26.40;;;2.10;99.90;;;;;;5063398;28;20200;-31
2022/12/10 08:49:13;;;;;;;65.03;27.37;;;2.10;99.90;;;;;;5063258;28;20318;-31
2022/12/10 08:51:40;;;;;;;60.87;26.63;;;2.10;99.90;;;;;;5064137;28;20275;-31
2022/12/10 08:54:07;;;;;;;57.17;24.83;;;2.10;99.90;;;;;;5051069;28;20858;-31
2022/12/10 08:56:35;;;;;;;56.50;24.00;;;2.10;99.90;;;;;;5063188;28;20271;-31
2022/12/10 08:59:08;;;;;;;53.60;24.43;;;2.10;99.90;;;;;;5061799;28;20203;-31
2022/12/10 09:01:40;;;;;;;54.93;24.60;;;2.10;99.90;;;;;;5062081;28;20208;-31
2022/12/10 09:04:10;;;;;;;54.03;25.27;;;2.10;99.90;;;;;;5058546;28;20676;-31
2022/12/10 09:06:41;;;;;;;55.90;25.50;;;2.10;99.90;;;;;;5052291;28;20631;-31
2022/12/10 09:09:10;;;;;;;65.10;25.53;;;2.10;99.90;;;;;;5048294;28;20205;-31
2022/12/10 09:11:37;;;;;;;51.97;24.47;;;2.00;99.90;;;;;;5059646;28;20200;-31
2022/12/10 09:14:05;;;;;;;51.93;23.77;;;2.10;99.90;;;;;;5057904;28;20227;-31
2022/12/10 09:16:35;;;;;;;51.10;23.67;;;2.10;99.90;;;;;;5054759;28;20231;-31
2022/12/10 09:19:06;;;;;;;50.50;23.83;;;2.10;99.90;;;;;;5051292;28;20627;-31
2022/12/10 09:21:38;;;;;;;53.30;24.20;;;2.10;99.90;;;;;;5060614;28;20192;-32
2022/12/10 09:24:09;;;;;;;55.30;24.07;;;2.10;99.90;;;;;;5046493;28;20265;-31
2022/12/10 09:26:39;;;;;;;53.33;23.80;;;2.10;99.90;;;;;;5059613;28;20204;-31
2022/12/10 09:29:10;;;;;;;55.90;24.00;;;2.10;99.90;;;;;;5045446;28;20207;-31
2022/12/10 09:31:40;;;;;;;54.70;24.03;;;2.10;99.90;;;;;;5047267;28;20331;-31
2022/12/10 09:34:07;;;;;;;56.00;23.47;;;2.10;99.90;;;;;;5053327;28;20227;-31
2022/12/10 09:36:37;;;;;;;55.87;23.73;;;2.10;99.90;;;;;;5050018;28;20214;-31
2022/12/10 09:39:09;;;;;;;49.53;22.23;;;2.10;99.90;;;;;;5060661;28;20646;-31
2022/12/10 09:42:03;;;;;;;52.93;23.33;;;2.10;99.90;;;;;;5054718;28;20293;-31
2022/12/10 09:44:49;;;;;;;55.80;25.77;;;2.10;99.90;;;;;;5051548;28;20204;-31
2022/12/10 09:47:17;;;;;;;56.23;25.37;;;2.20;99.90;;;;;;5051526;28;20210;-32
2022/12/10 09:50:09;;;;;;;48.67;21.23;;;2.10;99.90;;;;;;5063437;28;20607;-33
2022/12/10 09:52:44;;;;;;;50.70;23.93;;;2.10;99.90;;;;;;5062627;28;20203;-32
2022/12/10 09:55:24;;;;;;;49.70;21.53;;;2.10;99.90;;;;;;5060519;28;20232;-33
2022/12/10 09:57:56;;;;;;;45.00;19.97;;;2.10;99.90;;;;;;5057417;28;20291;-33
2022/12/10 10:00:32;;;;;;;47.93;19.97;;;2.20;99.90;;;;;;5047521;28;20761;-33
2022/12/10 10:03:00;;;;;;;45.27;21.70;;;2.20;99.90;;;;;;5044738;28;20212;-33
2022/12/10 10:05:34;;;;;;;49.57;21.47;;;2.30;99.90;;;;;;5049792;28;20207;-33
2022/12/10 10:08:04;;;;;;;42.60;20.73;;;2.30;99.90;;;;;;5059192;28;20211;-33
2022/12/10 10:10:34;;;;;;;46.20;21.27;;;2.30;99.90;;;;;;5046943;28;20253;-33
2022/12/10 10:13:18;;;;;;;44.87;21.07;;;2.40;99.90;;;;;;5060374;28;20207;-32
2022/12/10 10:15:45;;;;;;;46.03;21.67;;;2.50;99.90;;;;;;5054632;28;20378;-33
2022/12/10 10:18:14;;;;;;;43.07;19.67;;;2.50;99.90;;;;;;5064587;28;20219;-33
2022/12/10 10:20:42;;;;;;;47.07;20.77;;;2.60;99.90;;;;;;5059606;28;20294;-32
2022/12/10 10:23:14;;;;;;;40.90;19.17;;;2.60;99.90;;;;;;5064948;28;20261;-33
2022/12/10 10:25:47;;;;;;;44.70;20.13;;;2.70;99.90;;;;;;5060312;28;20302;-32
2022/12/10 10:28:19;;;;;;;47.13;22.20;;;2.70;99.90;;;;;;5047070;28;20517;-31
2022/12/10 10:30:51;;;;;;;46.47;19.60;;;2.70;99.90;;;;;;5069259;28;20230;-31
2022/12/10 10:33:21;;;;;;;46.97;19.60;;;2.70;99.90;;;;;;5057096;28;20207;-31
2022/12/10 10:35:56;;;;;;;48.60;21.53;;;2.60;99.90;;;;;;5056774;28;20298;-33
2022/12/10 10:38:29;;;;;;;44.47;21.70;;;2.60;99.90;;;;;;5061229;28;20310;-33
2022/12/10 10:41:02;;;;;;;46.30;21.47;;;2.60;99.90;;;;;;5064204;28;20628;-33
2022/12/10 10:43:33;;;;;;;42.00;19.07;;;2.60;99.90;;;;;;5048846;28;21527;-33
2022/12/10 10:46:06;;;;;;;49.43;22.27;;;2.60;99.90;;;;;;5063936;28;20235;-33
2022/12/10 10:48:39;;;;;;;49.57;21.43;;;2.60;99.90;;;;;;5068524;28;20564;-33
2022/12/10 10:51:24;;;;;;;44.27;20.33;;;2.60;99.90;;;;;;5068071;28;20330;-34
2022/12/10 10:53:55;;;;;;;54.00;24.23;;;2.60;99.90;;;;;;5049397;28;20219;-33
2022/12/10 10:56:31;;;;;;;51.47;22.80;;;2.60;99.90;;;;;;5048533;28;20744;-33
2022/12/10 10:59:03;;;;;;;47.23;22.60;;;2.60;99.90;;;;;;5052155;28;20200;-34
2022/12/10 11:01:51;;;;;;;50.20;22.43;;;2.60;99.90;;;;;;5049091;28;20243;-32
2022/12/10 11:04:22;;;;;;;55.30;23.13;;;2.60;99.90;;;;;;5061893;28;20221;-30
2022/12/10 11:06:53;;;;;;;47.87;22.70;;;2.60;99.90;;;;;;5053847;28;20204;-30
2022/12/10 11:09:33;;;;;;;50.57;23.57;;;2.60;99.90;;;;;;5048729;28;20603;-32
2022/12/10 11:12:03;;;;;;;53.43;24.90;;;2.60;99.90;;;;;;5048309;28;20212;-30
2022/12/10 11:14:43;;;;;;;58.27;24.33;;;2.60;99.90;;;;;;5056687;28;20215;-30
2022/12/10 11:17:10;;;;;;;54.43;24.43;;;2.70;99.90;;;;;;5052495;28;20195;-30
2022/12/10 11:20:11;;;;;;;51.93;25.03;;;2.70;99.90;;;;;;5055769;28;20326;-30
2022/12/10 11:22:51;;;;;;;47.60;24.97;;;2.70;99.90;;;;;;5061135;28;20294;-30
2022/12/10 11:25:26;;;;;;;50.43;22.63;;;2.70;99.90;;;;;;5065744;28;20624;-30
2022/12/10 11:28:06;;;;;;;51.37;23.20;;;2.70;99.90;;;;;;5063264;28;20209;-30
2022/12/10 11:30:42;;;;;;;53.80;25.20;;;2.70;99.90;;;;;;5064118;28;20277;-30
2022/12/10 11:33:27;;;;;;;51.40;24.27;;;2.70;99.90;;;;;;5058159;28;20207;-30
2022/12/10 11:36:17;;;;;;;51.80;24.90;;;2.70;99.90;;;;;;5066449;28;20239;-30
2022/12/10 11:39:12;;;;;;;54.20;22.93;;;2.70;99.90;;;;;;5059265;28;20541;-31
2022/12/10 11:41:58;;;;;;;50.77;23.87;;;2.70;99.90;;;;;;5054051;28;20200;-31
2022/12/10 11:44:40;;;;;;;51.60;25.23;;;2.70;99.90;;;;;;5055189;28;20204;-31
2022/12/10 11:47:27;;;;;;;49.57;24.40;;;2.70;99.90;;;;;;5065979;28;20333;-31
2022/12/10 11:50:15;;;;;;;55.10;25.40;;;2.70;99.90;;;;;;5063706;28;20764;-31
2022/12/10 11:52:47;;;;;;;51.60;24.20;;;2.80;99.90;;;;;;5057393;28;20679;-31
2022/12/10 11:55:46;;;;;;;51.87;23.80;;;2.80;99.90;;;;;;5048491;28;20860;-31
2022/12/10 11:58:32;;;;;;;52.37;24.50;;;2.80;99.90;;;;;;5057389;28;20214;-31
2022/12/10 12:01:29;;;;;;;43.83;22.57;;;2.90;99.90;;;;;;5063656;28;20757;-31
2022/12/10 12:04:29;;;;;;;48.30;22.40;;;2.90;99.90;;;;;;5052924;28;20574;-31
2022/12/10 12:07:20;;;;;;;44.20;22.53;;;2.80;99.90;;;;;;5050805;28;20199;-31
2022/12/10 12:09:56;;;;;;;51.07;23.90;;;2.90;99.90;;;;;;5050008;28;20212;-31
2022/12/10 12:12:57;;;;;;;51.33;23.57;;;2.90;99.90;;;;;;5061574;28;20213;-31
2022/12/10 12:15:43;;;;;;;52.80;24.37;;;2.90;99.90;;;;;;5058568;28;20228;-31
2022/12/10 12:18:25;;;;;;;49.10;23.10;;;3.00;99.90;;;;;;5055200;28;20219;-31
2022/12/10 12:20:59;;;;;;;46.93;22.87;;;3.00;99.90;;;;;;5048059;28;20774;-31
2022/12/10 12:23:26;;;;;;;57.73;25.27;;;3.00;99.90;;;;;;5054258;28;20204;-31
2022/12/10 12:26:07;;;;;;;50.53;23.80;;;3.00;99.90;;;;;;5049121;28;20208;-31
2022/12/10 12:28:50;;;;;;;48.97;23.30;;;3.10;99.90;;;;;;5047179;28;20239;-30
2022/12/10 12:31:37;;;;;;;49.60;23.30;;;3.10;99.90;;;;;;5050574;28;20285;-30
2022/12/10 12:34:25;;;;;;;50.97;23.30;;;3.10;99.90;;;;;;5056911;28;20618;-30
2022/12/10 12:36:55;;;;;;;53.33;24.23;;;3.10;99.90;;;;;;5055497;28;20188;-30
2022/12/10 12:39:58;;;;;;;52.07;23.40;;;3.20;99.90;;;;;;5054568;28;20208;-30
2022/12/10 12:42:48;;;;;;;52.00;22.80;;;3.20;99.90;;;;;;5065628;28;20206;-30
2022/12/10 12:45:39;;;;;;;48.50;22.60;;;3.20;99.90;;;;;;5059763;28;20284;-30
2022/12/10 12:48:30;;;;;;;49.67;23.47;;;3.20;99.90;;;;;;5060408;28;20231;-31
2022/12/10 12:51:08;;;;;;;49.33;22.00;;;3.30;99.90;;;;;;5053951;28;20577;-32
2022/12/10 12:53:38;;;;;;;54.50;23.20;;;3.20;99.90;;;;;;5049988;28;20294;-32
2022/12/10 12:56:17;;;;;;;49.27;22.50;;;3.20;99.90;;;;;;5059350;28;20229;-32
2022/12/10 12:59:09;;;;;;;51.13;22.93;;;3.30;99.90;;;;;;5052361;28;20575;-32
2022/12/10 13:01:55;;;;;;;52.20;24.43;;;3.30;99.90;;;;;;5050521;28;20283;-32
2022/12/10 13:04:26;;;;;;;51.53;23.63;;;3.30;99.90;;;;;;5042748;28;20205;-32
2022/12/10 13:07:17;;;;;;;47.50;21.60;;;3.30;99.90;;;;;;5053899;28;20235;-32
2022/12/10 13:09:48;;;;;;;46.83;22.07;;;3.30;99.90;;;;;;5054782;28;20210;-32
2022/12/10 13:12:30;;;;;;;45.43;21.97;;;3.30;99.90;;;;;;5050715;28;20206;-32
2022/12/10 13:15:19;;;;;;;47.57;21.43;;;3.30;99.90;;;;;;5053793;28;20234;-32
2022/12/10 13:18:04;;;;;;;45.67;20.87;;;3.30;99.90;;;;;;5053415;28;20220;-32